Azul Frontier — HPES — position and weather

sailwx.info

Track history (hours):
 
Tides and Currents Weather Stations Pressure Air Temp Water Temp Dewpoint Dewpoint Depression Visibility Wind Speed Wind Dir Waves Ship Positions

Azul Frontier

Last reported at 2017-Oct-18 23:04 UTC. Time now 2017-Oct-19 02:00 UTC.
Position N 38°56' E 015°25'.

Length 106 m; draft 7 m.

Type: Cargo ship. MMSI: 374159000.

Date/timePositionNaut miles runAvg speedWind from/ knotsBaromVisibWave heightAir tempDewpointWater temp
2017-Oct-18 23:04N 38°56' E 015°25'312.3
2017-Oct-18 22:48N 38°53' E 015°28'412.4
2017-Oct-18 22:27N 38°50' E 015°30'2412.2
2017-Oct-18 20:29N 38°27' E 015°40'611.8
2017-Oct-18 20:00N 38°21' E 015°42'8 9.0
2017-Oct-18 19:09N 38°14' E 015°38'1 7.1
2017-Oct-18 18:59N 38°14' E 015°37'511.4
2017-Oct-18 18:30N 38°08' E 015°36'611.8
2017-Oct-18 18:00N 38°02' E 015°36'611.3
2017-Oct-18 17:30N 37°57' E 015°38'611.8
2017-Oct-18 16:59N 37°53' E 015°44'612.0
2017-Oct-18 16:29N 37°50' E 015°50'612.0
2017-Oct-18 16:00N 37°47' E 015°57'612.0
2017-Oct-18 15:29N 37°45' E 016°04'15511.7
2017-Oct-18 02:09N 37°05' E 019°13'2111.3
2017-Oct-18 00:19N 36°60' E 019°39'511.6
2017-Oct-17 23:54N 36°58' E 019°44'611.8
2017-Oct-17 23:25N 36°57' E 019°51'511.6
2017-Oct-17 23:00N 36°56' E 019°57'611.6
2017-Oct-17 22:30N 36°54' E 020°04'611.6
2017-Oct-17 21:59N 36°53' E 020°11'611.6
2017-Oct-17 21:30N 36°51' E 020°18'711.7
2017-Oct-17 20:55N 36°50' E 020°26'511.7
2017-Oct-17 20:27N 36°48' E 020°33'1311.5
2017-Oct-17 19:19N 36°45' E 020°49'167 9.6
2017-Oct-17 02:01N 37°35' E 024°08'211.7
2017-Oct-17 01:51N 37°37' E 024°09'  
2017-Oct-09 05:06N 44°04' E 029°35'210.6
2017-Oct-09 04:57N 44°03' E 029°35'510.5
2017-Oct-09 04:30N 43°58' E 029°34'610.5
2017-Oct-09 03:59N 43°52' E 029°34'510.8
2017-Oct-09 03:30N 43°47' E 029°33'611.1
2017-Oct-09 03:00N 43°42' E 029°32'  
Track history (hours):
 
Tides and Currents Weather Stations Pressure Air Temp Water Temp Dewpoint Dewpoint Depression Visibility Wind Speed Wind Dir Waves Ship Positions

Azul Frontier

Last reported at 2017-Oct-18 23:04 UTC. Time now 2017-Oct-19 02:00 UTC.
Position N 38°56' E 015°25'.

Length 106 m; draft 7 m.

Type: Cargo ship. MMSI: 374159000.

Date/timePositionNaut miles runAvg speedWind from/ knotsBaromVisibWave heightAir tempDewpointWater temp
2017-Oct-18 23:04N 38°56' E 015°25'312.3
2017-Oct-18 22:48N 38°53' E 015°28'412.4
2017-Oct-18 22:27N 38°50' E 015°30'2412.2
2017-Oct-18 20:29N 38°27' E 015°40'611.8
2017-Oct-18 20:00N 38°21' E 015°42'8 9.0
2017-Oct-18 19:09N 38°14' E 015°38'1 7.1
2017-Oct-18 18:59N 38°14' E 015°37'511.4
2017-Oct-18 18:30N 38°08' E 015°36'611.8
2017-Oct-18 18:00N 38°02' E 015°36'611.3
2017-Oct-18 17:30N 37°57' E 015°38'611.8
2017-Oct-18 16:59N 37°53' E 015°44'612.0
2017-Oct-18 16:29N 37°50' E 015°50'612.0
2017-Oct-18 16:00N 37°47' E 015°57'612.0
2017-Oct-18 15:29N 37°45' E 016°04'15511.7
2017-Oct-18 02:09N 37°05' E 019°13'2111.3
2017-Oct-18 00:19N 36°60' E 019°39'511.6
2017-Oct-17 23:54N 36°58' E 019°44'611.8
2017-Oct-17 23:25N 36°57' E 019°51'511.6
2017-Oct-17 23:00N 36°56' E 019°57'611.6
2017-Oct-17 22:30N 36°54' E 020°04'611.6
2017-Oct-17 21:59N 36°53' E 020°11'611.6
2017-Oct-17 21:30N 36°51' E 020°18'711.7
2017-Oct-17 20:55N 36°50' E 020°26'511.7
2017-Oct-17 20:27N 36°48' E 020°33'1311.5
2017-Oct-17 19:19N 36°45' E 020°49'167 9.6
2017-Oct-17 02:01N 37°35' E 024°08'211.7
2017-Oct-17 01:51N 37°37' E 024°09'  
2017-Oct-09 05:06N 44°04' E 029°35'210.6
2017-Oct-09 04:57N 44°03' E 029°35'510.5
2017-Oct-09 04:30N 43°58' E 029°34'610.5
2017-Oct-09 03:59N 43°52' E 029°34'510.8
2017-Oct-09 03:30N 43°47' E 029°33'611.1
2017-Oct-09 03:00N 43°42' E 029°32'  

Dump ship's entire track history